sensor_id;sensor_type;location;lat;lon;timestamp;temperature;humidity
12287;DHT22;6206;53.100;11.098;2022-07-10T00:02:26;15.00;99.90
12287;DHT22;6206;53.100;11.098;2022-07-10T00:04:54;15.10;99.90
12287;DHT22;6206;53.100;11.098;2022-07-10T00:07:20;15.00;99.90
12287;DHT22;6206;53.100;11.098;2022-07-10T00:09:47;14.70;99.90
12287;DHT22;6206;53.100;11.098;2022-07-10T00:12:14;14.60;99.90
12287;DHT22;6206;53.100;11.098;2022-07-10T00:14:40;14.60;99.90
12287;DHT22;6206;53.100;11.098;2022-07-10T00:17:07;18.60;99.90
12287;DHT22;6206;53.100;11.098;2022-07-10T00:19:34;18.90;99.90
12287;DHT22;6206;53.100;11.098;2022-07-10T00:22:02;14.80;99.90
12287;DHT22;6206;53.100;11.098;2022-07-10T00:24:29;14.80;99.90
12287;DHT22;6206;53.100;11.098;2022-07-10T00:26:55;14.60;99.90
12287;DHT22;6206;53.100;11.098;2022-07-10T00:29:22;14.50;99.90
12287;DHT22;6206;53.100;11.098;2022-07-10T00:31:49;14.50;99.90
12287;DHT22;6206;53.100;11.098;2022-07-10T00:34:15;14.70;99.90
12287;DHT22;6206;53.100;11.098;2022-07-10T00:36:42;14.80;99.90
12287;DHT22;6206;53.100;11.098;2022-07-10T00:39:11;16.70;99.90
12287;DHT22;6206;53.100;11.098;2022-07-10T00:41:37;14.90;99.90
12287;DHT22;6206;53.100;11.098;2022-07-10T00:44:04;14.60;99.90
12287;DHT22;6206;53.100;11.098;2022-07-10T00:46:31;19.00;99.90
12287;DHT22;6206;53.100;11.098;2022-07-10T00:48:58;14.50;99.90
12287;DHT22;6206;53.100;11.098;2022-07-10T00:51:27;14.40;99.90
12287;DHT22;6206;53.100;11.098;2022-07-10T00:53:56;14.30;99.90
12287;DHT22;6206;53.100;11.098;2022-07-10T00:56:26;14.30;99.90
12287;DHT22;6206;53.100;11.098;2022-07-10T00:58:53;15.70;99.90
12287;DHT22;6206;53.100;11.098;2022-07-10T01:01:20;18.60;99.90
12287;DHT22;6206;53.100;11.098;2022-07-10T01:03:48;14.40;99.90
12287;DHT22;6206;53.100;11.098;2022-07-10T01:06:15;14.50;99.90
12287;DHT22;6206;53.100;11.098;2022-07-10T01:08:43;14.40;99.90
12287;DHT22;6206;53.100;11.098;2022-07-10T01:11:11;14.30;99.90
12287;DHT22;6206;53.100;11.098;2022-07-10T01:13:41;14.30;99.90
12287;DHT22;6206;53.100;11.098;2022-07-10T01:16:08;14.30;99.90
12287;DHT22;6206;53.100;11.098;2022-07-10T01:18:35;16.20;99.90
12287;DHT22;6206;53.100;11.098;2022-07-10T01:21:03;14.20;99.90
12287;DHT22;6206;53.100;11.098;2022-07-10T01:23:29;14.10;99.90
12287;DHT22;6206;53.100;11.098;2022-07-10T01:25:56;17.40;99.90
12287;DHT22;6206;53.100;11.098;2022-07-10T01:28:22;14.10;99.90
12287;DHT22;6206;53.100;11.098;2022-07-10T01:30:49;14.10;99.90
12287;DHT22;6206;53.100;11.098;2022-07-10T01:33:16;14.00;99.90
12287;DHT22;6206;53.100;11.098;2022-07-10T01:35:43;14.30;99.90
12287;DHT22;6206;53.100;11.098;2022-07-10T01:38:10;14.30;99.90
12287;DHT22;6206;53.100;11.098;2022-07-10T01:40:37;14.30;99.90
12287;DHT22;6206;53.100;11.098;2022-07-10T01:43:04;14.30;99.90
12287;DHT22;6206;53.100;11.098;2022-07-10T01:45:32;14.20;99.90
12287;DHT22;6206;53.100;11.098;2022-07-10T01:47:59;14.30;99.90
12287;DHT22;6206;53.100;11.098;2022-07-10T01:50:25;14.30;99.90
12287;DHT22;6206;53.100;11.098;2022-07-10T01:52:52;14.40;99.90
12287;DHT22;6206;53.100;11.098;2022-07-10T01:55:20;14.50;99.90
12287;DHT22;6206;53.100;11.098;2022-07-10T01:57:47;17.00;99.90
12287;DHT22;6206;53.100;11.098;2022-07-10T02:00:14;14.40;99.90
12287;DHT22;6206;53.100;11.098;2022-07-10T02:02:40;14.30;99.90
12287;DHT22;6206;53.100;11.098;2022-07-10T02:05:27;14.30;99.90
12287;DHT22;6206;53.100;11.098;2022-07-10T02:07:53;14.20;99.90
12287;DHT22;6206;53.100;11.098;2022-07-10T02:12:48;14.10;99.90
12287;DHT22;6206;53.100;11.098;2022-07-10T02:15:14;14.10;99.90
12287;DHT22;6206;53.100;11.098;2022-07-10T02:17:41;13.90;99.90
12287;DHT22;6206;53.100;11.098;2022-07-10T02:20:08;13.80;99.90
12287;DHT22;6206;53.100;11.098;2022-07-10T02:22:36;13.80;99.90
12287;DHT22;6206;53.100;11.098;2022-07-10T02:25:03;13.70;99.90
12287;DHT22;6206;53.100;11.098;2022-07-10T02:27:31;13.70;99.90
12287;DHT22;6206;53.100;11.098;2022-07-10T02:29:58;13.70;99.90
12287;DHT22;6206;53.100;11.098;2022-07-10T02:32:24;13.80;99.90
12287;DHT22;6206;53.100;11.098;2022-07-10T02:34:51;13.90;99.90
12287;DHT22;6206;53.100;11.098;2022-07-10T02:37:18;18.50;99.90
12287;DHT22;6206;53.100;11.098;2022-07-10T02:39:44;18.40;99.90
12287;DHT22;6206;53.100;11.098;2022-07-10T02:42:11;14.20;99.90
12287;DHT22;6206;53.100;11.098;2022-07-10T02:44:39;14.20;99.90
12287;DHT22;6206;53.100;11.098;2022-07-10T02:47:05;14.20;99.90
12287;DHT22;6206;53.100;11.098;2022-07-10T02:49:32;14.10;99.90
12287;DHT22;6206;53.100;11.098;2022-07-10T02:51:59;14.10;99.90
12287;DHT22;6206;53.100;11.098;2022-07-10T02:54:26;14.10;99.90
12287;DHT22;6206;53.100;11.098;2022-07-10T02:56:53;14.00;99.90
12287;DHT22;6206;53.100;11.098;2022-07-10T02:59:19;14.00;99.90
12287;DHT22;6206;53.100;11.098;2022-07-10T03:01:47;17.70;99.90
12287;DHT22;6206;53.100;11.098;2022-07-10T03:04:14;17.30;99.90
12287;DHT22;6206;53.100;11.098;2022-07-10T03:06:41;14.00;99.90
12287;DHT22;6206;53.100;11.098;2022-07-10T03:09:07;14.00;99.90
12287;DHT22;6206;53.100;11.098;2022-07-10T03:11:34;13.70;99.90
12287;DHT22;6206;53.100;11.098;2022-07-10T03:14:00;15.50;99.90
12287;DHT22;6206;53.100;11.098;2022-07-10T03:16:28;13.70;99.90
12287;DHT22;6206;53.100;11.098;2022-07-10T03:18:56;13.70;99.90
12287;DHT22;6206;53.100;11.098;2022-07-10T03:21:22;13.80;99.90
12287;DHT22;6206;53.100;11.098;2022-07-10T03:23:49;13.80;99.90
12287;DHT22;6206;53.100;11.098;2022-07-10T03:26:16;17.50;99.90
12287;DHT22;6206;53.100;11.098;2022-07-10T03:28:42;13.80;99.90
12287;DHT22;6206;53.100;11.098;2022-07-10T03:31:09;13.90;99.90
12287;DHT22;6206;53.100;11.098;2022-07-10T03:33:36;14.00;99.90
12287;DHT22;6206;53.100;11.098;2022-07-10T03:36:06;13.70;99.90
12287;DHT22;6206;53.100;11.098;2022-07-10T03:38:32;13.80;99.90
12287;DHT22;6206;53.100;11.098;2022-07-10T03:40:59;14.70;99.90
12287;DHT22;6206;53.100;11.098;2022-07-10T03:43:25;13.80;99.90
12287;DHT22;6206;53.100;11.098;2022-07-10T03:45:52;17.80;99.90
12287;DHT22;6206;53.100;11.098;2022-07-10T03:48:19;14.00;99.90
12287;DHT22;6206;53.100;11.098;2022-07-10T03:50:49;13.90;99.90
12287;DHT22;6206;53.100;11.098;2022-07-10T03:53:17;18.00;99.90
12287;DHT22;6206;53.100;11.098;2022-07-10T03:55:44;15.60;99.90
12287;DHT22;6206;53.100;11.098;2022-07-10T03:58:11;13.80;99.90
12287;DHT22;6206;53.100;11.098;2022-07-10T04:00:36;13.90;99.90
12287;DHT22;6206;53.100;11.098;2022-07-10T04:03:05;13.80;99.90
12287;DHT22;6206;53.100;11.098;2022-07-10T04:05:32;13.90;99.90
12287;DHT22;6206;53.100;11.098;2022-07-10T04:08:00;14.00;99.90
12287;DHT22;6206;53.100;11.098;2022-07-10T04:10:29;18.20;99.90
12287;DHT22;6206;53.100;11.098;2022-07-10T04:12:56;14.10;99.90
12287;DHT22;6206;53.100;11.098;2022-07-10T04:15:24;14.10;99.90
12287;DHT22;6206;53.100;11.098;2022-07-10T04:17:51;14.00;99.90
12287;DHT22;6206;53.100;11.098;2022-07-10T04:20:18;18.20;99.90
12287;DHT22;6206;53.100;11.098;2022-07-10T04:22:45;14.00;99.90
12287;DHT22;6206;53.100;11.098;2022-07-10T04:25:12;13.90;99.90
12287;DHT22;6206;53.100;11.098;2022-07-10T04:27:40;16.10;99.90
12287;DHT22;6206;53.100;11.098;2022-07-10T04:30:08;14.10;99.90
12287;DHT22;6206;53.100;11.098;2022-07-10T04:32:35;14.10;99.90
12287;DHT22;6206;53.100;11.098;2022-07-10T04:35:02;14.20;99.90
12287;DHT22;6206;53.100;11.098;2022-07-10T04:37:29;14.20;99.90
12287;DHT22;6206;53.100;11.098;2022-07-10T04:39:56;14.10;99.90
12287;DHT22;6206;53.100;11.098;2022-07-10T04:42:22;14.20;99.90
12287;DHT22;6206;53.100;11.098;2022-07-10T04:44:50;14.30;99.90
12287;DHT22;6206;53.100;11.098;2022-07-10T04:47:17;14.40;99.90
12287;DHT22;6206;53.100;11.098;2022-07-10T04:49:44;14.50;99.90
12287;DHT22;6206;53.100;11.098;2022-07-10T04:52:11;14.70;99.90
12287;DHT22;6206;53.100;11.098;2022-07-10T04:54:37;14.70;99.90
12287;DHT22;6206;53.100;11.098;2022-07-10T04:57:05;14.70;99.90
12287;DHT22;6206;53.100;11.098;2022-07-10T04:59:31;14.80;99.90
12287;DHT22;6206;53.100;11.098;2022-07-10T05:01:59;15.00;99.90
12287;DHT22;6206;53.100;11.098;2022-07-10T05:04:26;14.70;99.90
12287;DHT22;6206;53.100;11.098;2022-07-10T05:06:53;17.20;99.90
12287;DHT22;6206;53.100;11.098;2022-07-10T05:09:19;14.70;99.90
12287;DHT22;6206;53.100;11.098;2022-07-10T05:11:46;14.80;99.90
12287;DHT22;6206;53.100;11.098;2022-07-10T05:14:13;14.80;99.90
12287;DHT22;6206;53.100;11.098;2022-07-10T05:16:39;14.90;99.90
12287;DHT22;6206;53.100;11.098;2022-07-10T05:19:07;14.90;99.90
12287;DHT22;6206;53.100;11.098;2022-07-10T05:21:34;15.30;99.90
12287;DHT22;6206;53.100;11.098;2022-07-10T05:24:01;16.00;99.90
12287;DHT22;6206;53.100;11.098;2022-07-10T05:26:27;14.90;99.90
12287;DHT22;6206;53.100;11.098;2022-07-10T05:28:54;14.70;99.90
12287;DHT22;6206;53.100;11.098;2022-07-10T05:31:21;14.90;99.90
12287;DHT22;6206;53.100;11.098;2022-07-10T05:33:47;14.80;99.90
12287;DHT22;6206;53.100;11.098;2022-07-10T05:36:15;14.80;99.90
12287;DHT22;6206;53.100;11.098;2022-07-10T05:38:42;15.20;99.90
12287;DHT22;6206;53.100;11.098;2022-07-10T05:41:09;15.20;99.90
12287;DHT22;6206;53.100;11.098;2022-07-10T05:43:36;15.30;99.90
12287;DHT22;6206;53.100;11.098;2022-07-10T05:46:02;15.00;99.90
12287;DHT22;6206;53.100;11.098;2022-07-10T05:48:29;15.30;99.90
12287;DHT22;6206;53.100;11.098;2022-07-10T05:50:56;15.10;99.90
12287;DHT22;6206;53.100;11.098;2022-07-10T05:53:24;15.10;99.90
12287;DHT22;6206;53.100;11.098;2022-07-10T05:55:50;15.10;99.90
12287;DHT22;6206;53.100;11.098;2022-07-10T05:58:17;15.10;99.90
12287;DHT22;6206;53.100;11.098;2022-07-10T06:00:44;15.50;99.90
12287;DHT22;6206;53.100;11.098;2022-07-10T06:03:11;15.50;99.90
12287;DHT22;6206;53.100;11.098;2022-07-10T06:05:38;15.50;99.90
12287;DHT22;6206;53.100;11.098;2022-07-10T06:08:05;15.60;99.90
12287;DHT22;6206;53.100;11.098;2022-07-10T06:10:33;19.70;99.90
12287;DHT22;6206;53.100;11.098;2022-07-10T06:12:59;15.50;99.90
12287;DHT22;6206;53.100;11.098;2022-07-10T06:15:26;19.40;99.90
12287;DHT22;6206;53.100;11.098;2022-07-10T06:17:56;15.30;99.90
12287;DHT22;6206;53.100;11.098;2022-07-10T06:20:23;15.40;99.90
12287;DHT22;6206;53.100;11.098;2022-07-10T06:22:49;15.60;99.90
12287;DHT22;6206;53.100;11.098;2022-07-10T06:25:16;15.50;99.90
12287;DHT22;6206;53.100;11.098;2022-07-10T06:27:44;15.30;99.90
12287;DHT22;6206;53.100;11.098;2022-07-10T06:30:11;15.50;99.90
12287;DHT22;6206;53.100;11.098;2022-07-10T06:32:39;15.40;99.90
12287;DHT22;6206;53.100;11.098;2022-07-10T06:35:07;15.40;99.90
12287;DHT22;6206;53.100;11.098;2022-07-10T06:37:33;15.70;99.90
12287;DHT22;6206;53.100;11.098;2022-07-10T06:40:01;15.80;99.90
12287;DHT22;6206;53.100;11.098;2022-07-10T06:42:27;15.60;99.90
12287;DHT22;6206;53.100;11.098;2022-07-10T06:44:56;17.40;99.90
12287;DHT22;6206;53.100;11.098;2022-07-10T06:47:23;15.30;99.90
12287;DHT22;6206;53.100;11.098;2022-07-10T06:50:19;15.50;99.90
12287;DHT22;6206;53.100;11.098;2022-07-10T06:52:47;15.60;99.90
12287;DHT22;6206;53.100;11.098;2022-07-10T06:55:14;15.20;99.90
12287;DHT22;6206;53.100;11.098;2022-07-10T06:57:41;15.10;99.90
12287;DHT22;6206;53.100;11.098;2022-07-10T07:00:10;15.40;99.90
12287;DHT22;6206;53.100;11.098;2022-07-10T07:02:38;15.90;99.90
12287;DHT22;6206;53.100;11.098;2022-07-10T07:05:06;15.90;99.90
12287;DHT22;6206;53.100;11.098;2022-07-10T07:07:33;15.70;99.90
12287;DHT22;6206;53.100;11.098;2022-07-10T07:09:59;15.50;99.90
12287;DHT22;6206;53.100;11.098;2022-07-10T07:12:26;18.60;99.90
12287;DHT22;6206;53.100;11.098;2022-07-10T07:14:53;17.50;99.90
12287;DHT22;6206;53.100;11.098;2022-07-10T07:17:21;15.70;99.90
12287;DHT22;6206;53.100;11.098;2022-07-10T07:19:50;15.60;99.90
12287;DHT22;6206;53.100;11.098;2022-07-10T07:22:35;15.70;99.90
12287;DHT22;6206;53.100;11.098;2022-07-10T07:25:20;15.70;99.90
12287;DHT22;6206;53.100;11.098;2022-07-10T07:27:47;15.40;99.90
12287;DHT22;6206;53.100;11.098;2022-07-10T07:30:15;15.50;99.90
12287;DHT22;6206;53.100;11.098;2022-07-10T07:32:44;16.80;99.90
12287;DHT22;6206;53.100;11.098;2022-07-10T07:35:12;15.80;99.90
12287;DHT22;6206;53.100;11.098;2022-07-10T07:37:39;15.40;99.90
12287;DHT22;6206;53.100;11.098;2022-07-10T07:40:08;15.40;99.90
12287;DHT22;6206;53.100;11.098;2022-07-10T07:42:35;15.40;99.90
12287;DHT22;6206;53.100;11.098;2022-07-10T07:45:03;18.40;99.90
12287;DHT22;6206;53.100;11.098;2022-07-10T07:47:30;15.60;99.90
12287;DHT22;6206;53.100;11.098;2022-07-10T07:50:01;15.80;99.90
12287;DHT22;6206;53.100;11.098;2022-07-10T07:52:28;15.80;99.90
12287;DHT22;6206;53.100;11.098;2022-07-10T07:54:56;16.00;99.90
12287;DHT22;6206;53.100;11.098;2022-07-10T07:57:23;19.60;99.90
12287;DHT22;6206;53.100;11.098;2022-07-10T07:59:50;16.40;99.90
12287;DHT22;6206;53.100;11.098;2022-07-10T08:02:17;16.50;99.90
12287;DHT22;6206;53.100;11.098;2022-07-10T08:04:44;16.70;99.90
12287;DHT22;6206;53.100;11.098;2022-07-10T08:07:12;16.40;99.90
12287;DHT22;6206;53.100;11.098;2022-07-10T08:09:39;16.50;99.90
12287;DHT22;6206;53.100;11.098;2022-07-10T08:12:06;16.50;99.90
12287;DHT22;6206;53.100;11.098;2022-07-10T08:14:33;16.60;99.90
12287;DHT22;6206;53.100;11.098;2022-07-10T08:17:00;16.60;99.90
12287;DHT22;6206;53.100;11.098;2022-07-10T08:19:27;16.80;99.90
12287;DHT22;6206;53.100;11.098;2022-07-10T08:21:54;16.90;99.90
12287;DHT22;6206;53.100;11.098;2022-07-10T08:24:23;18.90;99.90
12287;DHT22;6206;53.100;11.098;2022-07-10T08:26:49;17.10;99.90
12287;DHT22;6206;53.100;11.098;2022-07-10T08:29:16;17.00;99.90
12287;DHT22;6206;53.100;11.098;2022-07-10T08:31:44;16.80;99.90
12287;DHT22;6206;53.100;11.098;2022-07-10T08:34:11;17.60;99.90
12287;DHT22;6206;53.100;11.098;2022-07-10T08:36:38;16.70;99.90
12287;DHT22;6206;53.100;11.098;2022-07-10T08:39:04;16.70;99.90
12287;DHT22;6206;53.100;11.098;2022-07-10T08:41:35;16.90;99.90
12287;DHT22;6206;53.100;11.098;2022-07-10T08:44:03;20.40;99.90
12287;DHT22;6206;53.100;11.098;2022-07-10T08:46:31;16.90;99.90
12287;DHT22;6206;53.100;11.098;2022-07-10T08:48:59;16.90;99.90
12287;DHT22;6206;53.100;11.098;2022-07-10T08:51:35;17.00;99.90
12287;DHT22;6206;53.100;11.098;2022-07-10T08:54:04;20.30;99.90
12287;DHT22;6206;53.100;11.098;2022-07-10T08:56:33;20.00;99.90
12287;DHT22;6206;53.100;11.098;2022-07-10T08:59:01;17.60;99.90
12287;DHT22;6206;53.100;11.098;2022-07-10T09:01:28;17.60;99.90
12287;DHT22;6206;53.100;11.098;2022-07-10T09:03:55;17.60;99.90
12287;DHT22;6206;53.100;11.098;2022-07-10T09:06:21;20.90;99.90
12287;DHT22;6206;53.100;11.098;2022-07-10T09:08:59;17.20;99.90
12287;DHT22;6206;53.100;11.098;2022-07-10T09:11:26;17.30;99.90
12287;DHT22;6206;53.100;11.098;2022-07-10T09:13:57;17.50;99.90
12287;DHT22;6206;53.100;11.098;2022-07-10T09:16:25;17.80;99.90
12287;DHT22;6206;53.100;11.098;2022-07-10T09:18:53;22.00;99.90
12287;DHT22;6206;53.100;11.098;2022-07-10T09:21:21;20.50;99.90
12287;DHT22;6206;53.100;11.098;2022-07-10T09:23:48;20.80;99.90
12287;DHT22;6206;53.100;11.098;2022-07-10T09:26:14;20.30;99.90
12287;DHT22;6206;53.100;11.098;2022-07-10T09:28:41;21.30;99.90
12287;DHT22;6206;53.100;11.098;2022-07-10T09:31:09;18.90;99.90
12287;DHT22;6206;53.100;11.098;2022-07-10T09:33:36;18.30;99.90
12287;DHT22;6206;53.100;11.098;2022-07-10T09:36:04;21.80;99.90
12287;DHT22;6206;53.100;11.098;2022-07-10T09:38:51;18.10;99.90
12287;DHT22;6206;53.100;11.098;2022-07-10T09:41:21;20.80;99.90
12287;DHT22;6206;53.100;11.098;2022-07-10T09:43:49;19.10;99.90
12287;DHT22;6206;53.100;11.098;2022-07-10T09:46:19;19.00;99.90
12287;DHT22;6206;53.100;11.098;2022-07-10T09:48:47;20.60;99.90
12287;DHT22;6206;53.100;11.098;2022-07-10T09:51:14;18.60;99.90
12287;DHT22;6206;53.100;11.098;2022-07-10T09:53:41;21.60;99.90
12287;DHT22;6206;53.100;11.098;2022-07-10T09:56:10;18.30;99.90
12287;DHT22;6206;53.100;11.098;2022-07-10T09:58:37;18.40;99.90
12287;DHT22;6206;53.100;11.098;2022-07-10T10:01:05;18.60;99.90
12287;DHT22;6206;53.100;11.098;2022-07-10T10:03:35;20.60;99.90
12287;DHT22;6206;53.100;11.098;2022-07-10T10:06:03;22.40;99.90
12287;DHT22;6206;53.100;11.098;2022-07-10T10:08:37;18.70;99.90
12287;DHT22;6206;53.100;11.098;2022-07-10T10:11:14;18.70;99.90
12287;DHT22;6206;53.100;11.098;2022-07-10T10:13:43;18.60;99.90
12287;DHT22;6206;53.100;11.098;2022-07-10T10:16:10;18.50;99.90
12287;DHT22;6206;53.100;11.098;2022-07-10T10:18:40;18.70;99.90
12287;DHT22;6206;53.100;11.098;2022-07-10T10:21:22;22.50;99.90
12287;DHT22;6206;53.100;11.098;2022-07-10T10:23:50;18.30;99.90
12287;DHT22;6206;53.100;11.098;2022-07-10T10:26:18;18.80;99.90
12287;DHT22;6206;53.100;11.098;2022-07-10T10:28:47;21.60;99.90
12287;DHT22;6206;53.100;11.098;2022-07-10T10:31:13;20.70;99.90
12287;DHT22;6206;53.100;11.098;2022-07-10T10:33:42;20.70;99.90
12287;DHT22;6206;53.100;11.098;2022-07-10T10:36:11;21.50;99.90
12287;DHT22;6206;53.100;11.098;2022-07-10T10:39:00;19.40;99.90
12287;DHT22;6206;53.100;11.098;2022-07-10T10:41:30;19.50;99.90
12287;DHT22;6206;53.100;11.098;2022-07-10T10:44:20;20.20;99.90
12287;DHT22;6206;53.100;11.098;2022-07-10T10:46:55;19.10;99.90
12287;DHT22;6206;53.100;11.098;2022-07-10T10:49:48;21.10;99.90
12287;DHT22;6206;53.100;11.098;2022-07-10T10:52:16;23.20;99.90
12287;DHT22;6206;53.100;11.098;2022-07-10T10:55:05;19.40;99.90
12287;DHT22;6206;53.100;11.098;2022-07-10T10:57:42;19.40;99.90
12287;DHT22;6206;53.100;11.098;2022-07-10T11:00:28;19.60;99.90
12287;DHT22;6206;53.100;11.098;2022-07-10T11:03:20;22.20;99.90
12287;DHT22;6206;53.100;11.098;2022-07-10T11:05:49;20.40;99.90
12287;DHT22;6206;53.100;11.098;2022-07-10T11:08:35;19.80;99.90
12287;DHT22;6206;53.100;11.098;2022-07-10T11:14:07;20.80;99.90
12287;DHT22;6206;53.100;11.098;2022-07-10T11:16:34;22.60;99.90
12287;DHT22;6206;53.100;11.098;2022-07-10T11:19:01;21.00;99.90
12287;DHT22;6206;53.100;11.098;2022-07-10T11:21:38;21.60;99.90
12287;DHT22;6206;53.100;11.098;2022-07-10T11:24:19;22.00;99.90
12287;DHT22;6206;53.100;11.098;2022-07-10T11:26:57;22.00;99.90
12287;DHT22;6206;53.100;11.098;2022-07-10T11:29:26;20.40;99.90
12287;DHT22;6206;53.100;11.098;2022-07-10T11:31:54;20.60;99.90
12287;DHT22;6206;53.100;11.098;2022-07-10T11:34:21;22.90;99.90
12287;DHT22;6206;53.100;11.098;2022-07-10T11:36:48;21.30;99.90
12287;DHT22;6206;53.100;11.098;2022-07-10T11:39:15;20.90;99.90
12287;DHT22;6206;53.100;11.098;2022-07-10T11:41:43;20.60;99.90
12287;DHT22;6206;53.100;11.098;2022-07-10T11:44:13;20.20;99.90
12287;DHT22;6206;53.100;11.098;2022-07-10T11:46:43;20.30;99.90
12287;DHT22;6206;53.100;11.098;2022-07-10T11:49:12;21.90;99.90
12287;DHT22;6206;53.100;11.098;2022-07-10T11:51:41;20.40;99.90
12287;DHT22;6206;53.100;11.098;2022-07-10T11:54:10;23.60;99.90
12287;DHT22;6206;53.100;11.098;2022-07-10T11:56:38;20.50;99.90
12287;DHT22;6206;53.100;11.098;2022-07-10T11:59:08;20.10;99.90
12287;DHT22;6206;53.100;11.098;2022-07-10T12:01:40;20.70;99.90
12287;DHT22;6206;53.100;11.098;2022-07-10T12:04:10;20.40;99.90
12287;DHT22;6206;53.100;11.098;2022-07-10T12:06:39;20.40;99.90
12287;DHT22;6206;53.100;11.098;2022-07-10T12:09:07;20.20;99.90
12287;DHT22;6206;53.100;11.098;2022-07-10T12:11:35;21.00;99.90
12287;DHT22;6206;53.100;11.098;2022-07-10T12:14:10;20.40;99.90
12287;DHT22;6206;53.100;11.098;2022-07-10T12:16:38;22.40;99.90
12287;DHT22;6206;53.100;11.098;2022-07-10T12:19:07;22.40;99.90
12287;DHT22;6206;53.100;11.098;2022-07-10T12:21:35;22.20;99.90
12287;DHT22;6206;53.100;11.098;2022-07-10T12:24:02;21.30;99.90
12287;DHT22;6206;53.100;11.098;2022-07-10T12:26:33;21.10;99.90
12287;DHT22;6206;53.100;11.098;2022-07-10T12:29:00;22.20;99.90
12287;DHT22;6206;53.100;11.098;2022-07-10T12:31:29;22.00;99.90
12287;DHT22;6206;53.100;11.098;2022-07-10T12:33:58;20.40;99.90
12287;DHT22;6206;53.100;11.098;2022-07-10T12:36:44;21.70;99.90
12287;DHT22;6206;53.100;11.098;2022-07-10T12:39:12;20.60;99.90
12287;DHT22;6206;53.100;11.098;2022-07-10T12:41:57;21.00;99.90
12287;DHT22;6206;53.100;11.098;2022-07-10T12:44:32;21.20;99.90
12287;DHT22;6206;53.100;11.098;2022-07-10T12:47:03;21.90;99.90
12287;DHT22;6206;53.100;11.098;2022-07-10T12:49:48;21.00;99.90
12287;DHT22;6206;53.100;11.098;2022-07-10T12:52:21;21.90;99.90
12287;DHT22;6206;53.100;11.098;2022-07-10T12:54:48;21.90;99.90
12287;DHT22;6206;53.100;11.098;2022-07-10T12:57:14;22.30;99.90
12287;DHT22;6206;53.100;11.098;2022-07-10T12:59:41;21.40;99.90
12287;DHT22;6206;53.100;11.098;2022-07-10T13:02:16;22.30;99.90
12287;DHT22;6206;53.100;11.098;2022-07-10T13:04:52;21.20;99.90
12287;DHT22;6206;53.100;11.098;2022-07-10T13:07:29;22.70;99.90
12287;DHT22;6206;53.100;11.098;2022-07-10T13:09:55;21.20;99.90
12287;DHT22;6206;53.100;11.098;2022-07-10T13:12:24;21.40;99.90
12287;DHT22;6206;53.100;11.098;2022-07-10T13:14:51;22.60;99.90
12287;DHT22;6206;53.100;11.098;2022-07-10T13:17:19;22.40;99.90
12287;DHT22;6206;53.100;11.098;2022-07-10T13:19:45;22.10;99.90
12287;DHT22;6206;53.100;11.098;2022-07-10T13:22:12;21.60;99.90
12287;DHT22;6206;53.100;11.098;2022-07-10T13:24:40;21.70;99.90
12287;DHT22;6206;53.100;11.098;2022-07-10T13:27:06;21.70;99.90
12287;DHT22;6206;53.100;11.098;2022-07-10T13:29:33;21.60;99.90
12287;DHT22;6206;53.100;11.098;2022-07-10T13:32:00;21.50;99.90
12287;DHT22;6206;53.100;11.098;2022-07-10T13:34:28;21.60;99.90
12287;DHT22;6206;53.100;11.098;2022-07-10T13:36:55;21.50;99.90
12287;DHT22;6206;53.100;11.098;2022-07-10T13:39:21;21.50;99.90
12287;DHT22;6206;53.100;11.098;2022-07-10T13:41:49;21.60;99.90
12287;DHT22;6206;53.100;11.098;2022-07-10T13:44:16;21.70;99.90
12287;DHT22;6206;53.100;11.098;2022-07-10T13:46:43;21.30;99.90
12287;DHT22;6206;53.100;11.098;2022-07-10T13:49:10;21.00;99.90
12287;DHT22;6206;53.100;11.098;2022-07-10T13:51:37;21.40;99.90
12287;DHT22;6206;53.100;11.098;2022-07-10T13:54:03;21.50;99.90
12287;DHT22;6206;53.100;11.098;2022-07-10T13:56:30;21.50;99.90
12287;DHT22;6206;53.100;11.098;2022-07-10T13:58:59;20.90;99.90
12287;DHT22;6206;53.100;11.098;2022-07-10T14:01:26;20.80;99.90
12287;DHT22;6206;53.100;11.098;2022-07-10T14:03:52;21.00;99.90
12287;DHT22;6206;53.100;11.098;2022-07-10T14:06:19;21.10;99.90
12287;DHT22;6206;53.100;11.098;2022-07-10T14:08:46;21.10;99.90
12287;DHT22;6206;53.100;11.098;2022-07-10T14:11:13;20.70;99.90
12287;DHT22;6206;53.100;11.098;2022-07-10T14:13:40;22.90;99.90
12287;DHT22;6206;53.100;11.098;2022-07-10T14:16:09;20.70;99.90
12287;DHT22;6206;53.100;11.098;2022-07-10T14:18:38;21.10;99.90
12287;DHT22;6206;53.100;11.098;2022-07-10T14:21:07;21.70;99.90
12287;DHT22;6206;53.100;11.098;2022-07-10T14:23:36;21.60;99.90
12287;DHT22;6206;53.100;11.098;2022-07-10T14:26:04;20.80;99.90
12287;DHT22;6206;53.100;11.098;2022-07-10T14:28:31;20.60;99.90
12287;DHT22;6206;53.100;11.098;2022-07-10T14:31:00;20.80;99.90
12287;DHT22;6206;53.100;11.098;2022-07-10T14:33:30;22.00;99.90
12287;DHT22;6206;53.100;11.098;2022-07-10T14:35:58;21.10;99.90
12287;DHT22;6206;53.100;11.098;2022-07-10T14:38:25;22.00;99.90
12287;DHT22;6206;53.100;11.098;2022-07-10T14:40:52;21.00;99.90
12287;DHT22;6206;53.100;11.098;2022-07-10T14:43:20;20.80;99.90
12287;DHT22;6206;53.100;11.098;2022-07-10T14:45:47;23.10;99.90
12287;DHT22;6206;53.100;11.098;2022-07-10T14:48:13;20.70;99.90
12287;DHT22;6206;53.100;11.098;2022-07-10T14:50:42;21.50;99.90
12287;DHT22;6206;53.100;11.098;2022-07-10T14:53:08;22.70;99.90
12287;DHT22;6206;53.100;11.098;2022-07-10T14:55:36;21.60;99.90
12287;DHT22;6206;53.100;11.098;2022-07-10T14:58:03;20.10;99.90
12287;DHT22;6206;53.100;11.098;2022-07-10T15:00:30;20.70;99.90
12287;DHT22;6206;53.100;11.098;2022-07-10T15:02:57;21.00;99.90
12287;DHT22;6206;53.100;11.098;2022-07-10T15:05:24;21.50;99.90
12287;DHT22;6206;53.100;11.098;2022-07-10T15:07:52;22.40;99.90
12287;DHT22;6206;53.100;11.098;2022-07-10T15:10:19;22.50;99.90
12287;DHT22;6206;53.100;11.098;2022-07-10T15:12:46;21.30;99.90
12287;DHT22;6206;53.100;11.098;2022-07-10T15:15:12;20.80;99.90
12287;DHT22;6206;53.100;11.098;2022-07-10T15:17:39;22.20;99.90
12287;DHT22;6206;53.100;11.098;2022-07-10T15:20:07;23.00;99.90
12287;DHT22;6206;53.100;11.098;2022-07-10T15:22:33;22.40;99.90
12287;DHT22;6206;53.100;11.098;2022-07-10T15:25:02;21.40;99.90
12287;DHT22;6206;53.100;11.098;2022-07-10T15:27:29;20.80;99.90
12287;DHT22;6206;53.100;11.098;2022-07-10T15:29:55;21.20;99.90
12287;DHT22;6206;53.100;11.098;2022-07-10T15:32:22;22.30;99.90
12287;DHT22;6206;53.100;11.098;2022-07-10T15:34:49;23.40;99.90
12287;DHT22;6206;53.100;11.098;2022-07-10T15:37:15;23.20;99.90
12287;DHT22;6206;53.100;11.098;2022-07-10T15:39:42;22.60;99.90
12287;DHT22;6206;53.100;11.098;2022-07-10T15:42:11;22.20;99.90
12287;DHT22;6206;53.100;11.098;2022-07-10T15:44:38;23.20;99.90